Terminal Aerodrome Forecast
Issued by NWS Pittsburgh, PA

Current Version | Previous Version | Graphics & Text | Print | Product List | Glossary On
Versions: 1 2 3 4 5 6 7 8 9 10 11 12 13 14 15 16 17 18 19 20 21 22 23 24 25 26
000
FTUS41 KPBZ 062338
TAFPIT
TAF
KPIT 062338Z 0700/0806 12008KT 5SM -DZ BR BKN006 OVC012
     FM070400 21005KT P6SM OVC008
     FM071000 27009KT P6SM OVC015
     FM071600 26008KT P6SM SCT015 BKN050=

USA.gov is the U.S. government's official web portal to all federal, state and local government web resources and services.